createdAt,value
2022-10-20T00:00:26.838Z,3.90
2022-10-20T00:05:58.590Z,4.00
2022-10-20T00:11:30.020Z,4.10
2022-10-20T00:17:01.906Z,4.20
2022-10-20T00:22:33.820Z,4.35
2022-10-20T00:28:05.448Z,4.40
2022-10-20T00:33:37.387Z,4.50
2022-10-20T00:44:39.074Z,4.65
2022-10-20T00:50:10.760Z,4.70
2022-10-20T00:55:43.194Z,4.80
2022-10-20T01:01:14.667Z,4.80
2022-10-20T01:06:46.301Z,4.85
2022-10-20T01:12:18.322Z,4.95
2022-10-20T01:17:50.224Z,5.00
2022-10-20T01:23:21.795Z,5.05
2022-10-20T01:28:53.945Z,5.10
2022-10-20T01:34:27.544Z,5.15
2022-10-20T01:39:59.275Z,5.25
2022-10-20T01:45:31.052Z,5.40
2022-10-20T01:51:02.578Z,5.55
2022-10-20T01:56:34.596Z,5.60
2022-10-20T02:02:06.475Z,5.75
2022-10-20T02:07:38.503Z,5.80
2022-10-20T02:13:10.292Z,6.00
2022-10-20T02:18:42.058Z,6.00
2022-10-20T02:24:13.586Z,6.10
2022-10-20T02:29:45.656Z,6.20
2022-10-20T02:35:17.511Z,6.25
2022-10-20T02:40:49.443Z,6.45
2022-10-20T02:46:21.780Z,6.55
2022-10-20T02:51:53.871Z,6.60
2022-10-20T02:57:25.660Z,6.75
2022-10-20T03:02:57.579Z,6.85
2022-10-20T03:08:29.569Z,6.95
2022-10-20T03:14:01.472Z,7.15
2022-10-20T03:19:33.147Z,7.30
2022-10-20T03:25:04.827Z,7.45
2022-10-20T03:30:36.910Z,7.50
2022-10-20T03:36:08.626Z,7.65
2022-10-20T03:41:40.254Z,7.75
2022-10-20T03:47:11.901Z,7.80
2022-10-20T03:52:43.751Z,7.90
2022-10-20T03:58:15.641Z,8.00
2022-10-20T04:03:47.321Z,8.05
2022-10-20T04:09:19.283Z,8.10
2022-10-20T04:14:51.130Z,8.25
2022-10-20T04:20:23.440Z,8.45
2022-10-20T04:25:55.465Z,8.60
2022-10-20T04:31:27.161Z,8.65
2022-10-20T04:36:58.897Z,8.70
2022-10-20T04:42:30.574Z,8.80
2022-10-20T04:48:02.438Z,8.85
2022-10-20T04:53:34.533Z,9.05
2022-10-20T04:59:09.577Z,9.10
2022-10-20T05:04:38.390Z,9.20
2022-10-20T05:10:10.109Z,9.30
2022-10-20T05:15:41.959Z,9.55
2022-10-20T05:21:13.622Z,9.75
2022-10-20T05:26:45.465Z,9.90
2022-10-20T05:32:17.294Z,9.95
2022-10-20T05:37:49.298Z,10.05
2022-10-20T05:43:21.169Z,10.10
2022-10-20T05:48:53.147Z,10.15
2022-10-20T05:54:25.085Z,10.15
2022-10-20T05:59:56.945Z,10.25
2022-10-20T06:05:28.918Z,10.40
2022-10-20T06:11:01.029Z,10.55
2022-10-20T06:16:32.848Z,10.65
2022-10-20T06:22:05.840Z,10.85
2022-10-20T06:27:36.922Z,11.00
2022-10-20T06:33:08.787Z,11.15
2022-10-20T06:38:40.765Z,11.35
2022-10-20T06:44:12.708Z,11.40
2022-10-20T06:55:14.440Z,11.60
2022-10-20T07:00:46.385Z,11.65
2022-10-20T07:06:18.700Z,11.80
2022-10-20T07:11:52.735Z,11.95
2022-10-20T07:17:24.867Z,12.10
2022-10-20T07:22:57.072Z,12.10
2022-10-20T07:28:29.398Z,12.35
2022-10-20T07:34:13.007Z,12.45
2022-10-20T07:39:33.288Z,12.45
2022-10-20T07:45:05.292Z,12.50
2022-10-20T07:50:37.743Z,12.50
2022-10-20T07:56:10.023Z,12.60
2022-10-20T08:01:42.200Z,12.60
2022-10-20T08:07:14.279Z,12.70
2022-10-20T08:12:47.227Z,12.80
2022-10-20T08:23:51.706Z,12.85
2022-10-20T08:29:23.712Z,13.20
2022-10-20T08:34:55.762Z,13.25
2022-10-20T08:40:28.176Z,13.30
2022-10-20T08:46:00.985Z,13.35
2022-10-20T08:51:34.924Z,13.45
2022-10-20T08:57:07.261Z,13.70
2022-10-20T09:02:39.611Z,13.80
2022-10-20T09:08:11.985Z,13.90
2022-10-20T09:13:44.268Z,13.90
2022-10-20T09:30:20.318Z,14.15
2022-10-20T09:35:52.123Z,14.25
2022-10-20T09:46:55.670Z,14.35
2022-10-20T09:52:27.559Z,14.35
2022-10-20T09:57:59.765Z,14.35
2022-10-20T10:09:01.309Z,14.60
2022-10-20T10:14:33.144Z,14.65
2022-10-20T10:16:44.562Z,3.00
2022-10-20T10:22:16.292Z,2.95
2022-10-20T10:27:48.645Z,1.97
2022-10-20T10:33:20.222Z,1.97
2022-10-20T10:38:52.059Z,2.35
2022-10-20T10:44:23.942Z,2.29
2022-10-20T10:49:56.118Z,2.38
2022-10-20T10:55:47.893Z,2.45
2022-10-20T11:00:59.719Z,2.51
2022-10-20T11:06:33.651Z,2.35
2022-10-20T11:12:07.244Z,2.32
2022-10-20T11:17:38.854Z,2.12
2022-10-20T11:23:10.980Z,2.26
2022-10-20T11:28:42.714Z,2.17
2022-10-20T11:34:14.278Z,2.09
2022-10-20T11:39:45.969Z,2.02
2022-10-20T11:45:17.745Z,2.02
2022-10-20T11:50:49.705Z,2.01
2022-10-20T11:58:33.335Z,2.95
2022-10-20T12:04:05.254Z,1.97
2022-10-20T12:15:06.352Z,1.96
2022-10-20T12:20:37.586Z,2.35
2022-10-20T12:26:09.174Z,1.96
2022-10-20T12:31:40.869Z,1.96
2022-10-20T12:37:12.476Z,2.57
2022-10-20T12:42:43.933Z,2.51
2022-10-20T12:48:16.121Z,2.35
2022-10-20T12:53:48.066Z,2.32
2022-10-20T12:59:19.846Z,2.20
2022-10-20T13:04:51.670Z,2.04
2022-10-20T13:10:23.457Z,2.10
2022-10-20T13:15:55.264Z,2.02
2022-10-20T13:23:46.745Z,0.00
2022-10-20T13:29:18.086Z,1.98
2022-10-20T13:34:49.786Z,1.65
2022-10-20T13:40:24.021Z,1.72
2022-10-20T13:45:53.299Z,1.97
2022-10-20T13:51:25.643Z,1.64
2022-10-20T13:56:56.986Z,2.10
2022-10-20T14:02:28.504Z,2.21
2022-10-20T14:08:03.156Z,2.18
2022-10-20T14:13:31.918Z,2.26
2022-10-20T14:19:03.767Z,2.41
2022-10-20T14:24:35.663Z,2.29
2022-10-20T14:30:07.350Z,2.26
2022-10-20T14:35:38.982Z,2.17
2022-10-20T14:41:10.558Z,2.09
2022-10-20T14:46:42.268Z,2.39
2022-10-20T14:52:17.599Z,2.31
2022-10-20T14:57:46.107Z,2.29
2022-10-20T15:03:17.979Z,2.22
2022-10-20T15:08:49.808Z,2.20
2022-10-20T15:14:21.550Z,2.40
2022-10-20T15:19:53.541Z,2.45
2022-10-20T15:25:25.093Z,2.45
2022-10-20T15:30:56.882Z,2.55
2022-10-20T15:36:28.831Z,2.70
2022-10-20T15:42:00.533Z,2.85
2022-10-20T15:47:32.480Z,3.10
2022-10-20T15:53:04.377Z,3.10
2022-10-20T15:58:39.716Z,3.15
2022-10-20T16:04:08.744Z,3.30
2022-10-20T16:09:40.538Z,3.45
2022-10-20T16:15:12.478Z,3.45
2022-10-20T16:20:44.104Z,3.60
2022-10-20T16:26:15.518Z,3.70
2022-10-20T16:31:47.312Z,3.85
2022-10-20T16:37:19.180Z,3.95
2022-10-20T16:42:51.137Z,4.05
2022-10-20T16:48:25.486Z,4.10
2022-10-20T16:54:02.169Z,4.15
2022-10-20T16:59:29.629Z,4.25
2022-10-20T17:05:03.060Z,4.45
2022-10-20T17:10:33.487Z,4.60
2022-10-20T17:21:37.176Z,4.75
2022-10-20T17:27:09.574Z,4.75
2022-10-20T17:38:13.835Z,5.00
2022-10-20T17:43:46.039Z,5.15
2022-10-20T17:49:18.027Z,5.30
2022-10-20T17:54:50.480Z,5.45
2022-10-20T18:00:31.849Z,5.60
2022-10-20T18:05:54.676Z,5.70
2022-10-20T18:11:27.012Z,5.80
2022-10-20T18:16:58.978Z,6.10
2022-10-20T18:22:32.756Z,6.15
2022-10-20T18:28:04.571Z,6.35
2022-10-20T18:33:36.393Z,6.40
2022-10-20T18:39:08.217Z,6.60
2022-10-20T18:44:40.493Z,6.70
2022-10-20T18:50:12.211Z,6.80
2022-10-20T18:55:44.432Z,6.90
2022-10-20T19:01:16.769Z,6.95
2022-10-20T19:06:48.421Z,7.05
2022-10-20T19:12:20.156Z,7.20
2022-10-20T19:17:52.030Z,7.25
2022-10-20T19:23:23.814Z,7.40
2022-10-20T19:28:58.622Z,7.45
2022-10-20T19:34:27.439Z,7.50
2022-10-20T19:39:59.124Z,7.55
2022-10-20T19:45:31.148Z,7.65
2022-10-20T19:51:02.684Z,7.65
2022-10-20T19:56:35.094Z,7.70
2022-10-20T20:02:08.851Z,7.70
2022-10-20T20:07:40.746Z,7.75
2022-10-20T20:13:12.349Z,7.75
2022-10-20T20:18:44.038Z,7.80
2022-10-20T20:24:16.077Z,7.90
2022-10-20T20:29:47.868Z,8.00
2022-10-20T20:40:49.646Z,8.15
2022-10-20T20:51:53.203Z,8.35
2022-10-20T20:57:25.144Z,8.50
2022-10-20T21:02:57.250Z,8.55
2022-10-20T21:08:29.253Z,8.55
2022-10-20T21:14:01.121Z,8.70
2022-10-20T21:19:33.035Z,8.85
2022-10-20T21:25:05.237Z,8.90
2022-10-20T21:30:36.916Z,9.00
2022-10-20T21:36:08.644Z,9.05
2022-10-20T21:41:40.346Z,9.05
2022-10-20T21:47:12.176Z,9.20
2022-10-20T21:52:43.952Z,9.25
2022-10-20T21:58:15.703Z,9.40
2022-10-20T22:03:47.057Z,9.40
2022-10-20T22:09:19.171Z,9.75
2022-10-20T22:14:50.932Z,9.75
2022-10-20T22:28:09.520Z,1.97
2022-10-20T22:33:41.377Z,1.97
2022-10-20T22:44:44.961Z,1.76
2022-10-20T22:50:16.895Z,1.80
2022-10-20T22:55:48.702Z,1.96
2022-10-20T23:01:20.504Z,1.96
2022-10-20T23:06:52.180Z,1.85
2022-10-20T23:12:24.301Z,1.76
2022-10-20T23:17:56.490Z,1.69
2022-10-20T23:23:28.414Z,1.80
2022-10-20T23:29:00.491Z,1.81
2022-10-20T23:40:04.290Z,2.02
2022-10-20T23:45:37.823Z,2.08
2022-10-20T23:51:08.185Z,2.13
2022-10-20T23:56:39.822Z,2.18
